sensor_id;sensor_type;location;lat;lon;timestamp;P1;durP1;ratioP1;P2;durP2;ratioP2
58240;SDS011;45058;55.772;38.224;2022-11-20T00:01:13;18.30;;;10.30;;
58240;SDS011;45058;55.772;38.224;2022-11-20T00:03:41;17.67;;;10.67;;
58240;SDS011;45058;55.772;38.224;2022-11-20T00:06:09;18.63;;;11.13;;
58240;SDS011;45058;55.772;38.224;2022-11-20T00:08:36;18.20;;;11.07;;
58240;SDS011;45058;55.772;38.224;2022-11-20T00:11:06;17.10;;;10.67;;
58240;SDS011;45058;55.772;38.224;2022-11-20T00:13:33;18.03;;;10.63;;
58240;SDS011;45058;55.772;38.224;2022-11-20T00:16:00;19.67;;;11.73;;
58240;SDS011;45058;55.772;38.224;2022-11-20T00:18:27;17.43;;;10.67;;
58240;SDS011;45058;55.772;38.224;2022-11-20T00:20:53;18.73;;;11.30;;
58240;SDS011;45058;55.772;38.224;2022-11-20T00:23:20;18.30;;;11.07;;
58240;SDS011;45058;55.772;38.224;2022-11-20T00:25:46;21.03;;;11.83;;
58240;SDS011;45058;55.772;38.224;2022-11-20T00:28:12;19.37;;;11.93;;
58240;SDS011;45058;55.772;38.224;2022-11-20T00:30:38;18.43;;;11.97;;
58240;SDS011;45058;55.772;38.224;2022-11-20T00:33:04;23.73;;;12.60;;
58240;SDS011;45058;55.772;38.224;2022-11-20T00:35:30;20.87;;;12.10;;
58240;SDS011;45058;55.772;38.224;2022-11-20T00:37:56;20.70;;;12.80;;
58240;SDS011;45058;55.772;38.224;2022-11-20T00:40:21;21.83;;;12.00;;
58240;SDS011;45058;55.772;38.224;2022-11-20T00:42:47;22.27;;;13.03;;
58240;SDS011;45058;55.772;38.224;2022-11-20T00:45:13;20.10;;;11.80;;
58240;SDS011;45058;55.772;38.224;2022-11-20T00:47:39;21.73;;;12.70;;
58240;SDS011;45058;55.772;38.224;2022-11-20T00:50:05;21.40;;;11.93;;
58240;SDS011;45058;55.772;38.224;2022-11-20T00:52:32;23.93;;;12.90;;
58240;SDS011;45058;55.772;38.224;2022-11-20T00:54:58;20.33;;;11.83;;
58240;SDS011;45058;55.772;38.224;2022-11-20T00:57:24;19.47;;;12.40;;
58240;SDS011;45058;55.772;38.224;2022-11-20T00:59:49;20.87;;;11.87;;
58240;SDS011;45058;55.772;38.224;2022-11-20T01:02:16;25.13;;;13.20;;
58240;SDS011;45058;55.772;38.224;2022-11-20T01:04:42;21.30;;;11.70;;
58240;SDS011;45058;55.772;38.224;2022-11-20T01:07:08;25.80;;;13.07;;
58240;SDS011;45058;55.772;38.224;2022-11-20T01:09:34;23.13;;;11.97;;
58240;SDS011;45058;55.772;38.224;2022-11-20T01:12:00;23.77;;;13.37;;
58240;SDS011;45058;55.772;38.224;2022-11-20T01:14:26;21.10;;;12.47;;
58240;SDS011;45058;55.772;38.224;2022-11-20T01:16:52;22.47;;;12.33;;
58240;SDS011;45058;55.772;38.224;2022-11-20T01:19:21;27.07;;;13.17;;
58240;SDS011;45058;55.772;38.224;2022-11-20T01:21:49;23.70;;;12.90;;
58240;SDS011;45058;55.772;38.224;2022-11-20T01:24:18;25.03;;;12.03;;
58240;SDS011;45058;55.772;38.224;2022-11-20T01:26:46;19.63;;;12.07;;
58240;SDS011;45058;55.772;38.224;2022-11-20T01:29:14;21.43;;;12.03;;
58240;SDS011;45058;55.772;38.224;2022-11-20T01:31:42;24.43;;;12.63;;
58240;SDS011;45058;55.772;38.224;2022-11-20T01:34:14;23.43;;;12.17;;
58240;SDS011;45058;55.772;38.224;2022-11-20T01:36:42;22.67;;;12.53;;
58240;SDS011;45058;55.772;38.224;2022-11-20T01:39:11;24.37;;;13.03;;
58240;SDS011;45058;55.772;38.224;2022-11-20T01:41:39;22.13;;;12.10;;
58240;SDS011;45058;55.772;38.224;2022-11-20T01:47:31;23.13;;;14.00;;
58240;SDS011;45058;55.772;38.224;2022-11-20T01:52:48;23.00;;;12.30;;
58240;SDS011;45058;55.772;38.224;2022-11-20T01:55:19;23.83;;;12.13;;
58240;SDS011;45058;55.772;38.224;2022-11-20T01:57:47;21.20;;;12.77;;
58240;SDS011;45058;55.772;38.224;2022-11-20T02:00:14;21.40;;;11.90;;
58240;SDS011;45058;55.772;38.224;2022-11-20T02:02:44;24.53;;;12.47;;
58240;SDS011;45058;55.772;38.224;2022-11-20T02:08:04;24.10;;;12.60;;
58240;SDS011;45058;55.772;38.224;2022-11-20T02:10:31;26.43;;;12.50;;
58240;SDS011;45058;55.772;38.224;2022-11-20T02:12:57;23.30;;;12.43;;
58240;SDS011;45058;55.772;38.224;2022-11-20T02:15:42;20.37;;;11.37;;
58240;SDS011;45058;55.772;38.224;2022-11-20T02:18:09;22.17;;;12.87;;
58240;SDS011;45058;55.772;38.224;2022-11-20T02:20:35;23.67;;;12.27;;
58240;SDS011;45058;55.772;38.224;2022-11-20T02:25:28;20.13;;;11.10;;
58240;SDS011;45058;55.772;38.224;2022-11-20T02:27:55;21.73;;;12.07;;
58240;SDS011;45058;55.772;38.224;2022-11-20T02:30:21;22.17;;;11.80;;
58240;SDS011;45058;55.772;38.224;2022-11-20T02:32:47;19.70;;;11.17;;
58240;SDS011;45058;55.772;38.224;2022-11-20T02:37:50;20.80;;;11.17;;
58240;SDS011;45058;55.772;38.224;2022-11-20T02:40:16;19.97;;;11.57;;
58240;SDS011;45058;55.772;38.224;2022-11-20T02:42:43;20.70;;;11.97;;
58240;SDS011;45058;55.772;38.224;2022-11-20T02:45:09;19.87;;;11.00;;
58240;SDS011;45058;55.772;38.224;2022-11-20T02:47:35;21.33;;;11.90;;
58240;SDS011;45058;55.772;38.224;2022-11-20T02:50:01;19.27;;;10.77;;
58240;SDS011;45058;55.772;38.224;2022-11-20T02:52:29;19.00;;;11.60;;
58240;SDS011;45058;55.772;38.224;2022-11-20T02:54:58;22.03;;;11.20;;
58240;SDS011;45058;55.772;38.224;2022-11-20T02:57:24;20.03;;;11.50;;
58240;SDS011;45058;55.772;38.224;2022-11-20T02:59:50;18.93;;;11.73;;
58240;SDS011;45058;55.772;38.224;2022-11-20T03:02:16;19.97;;;10.67;;
58240;SDS011;45058;55.772;38.224;2022-11-20T03:04:42;17.60;;;10.60;;
58240;SDS011;45058;55.772;38.224;2022-11-20T03:07:08;19.93;;;11.97;;
58240;SDS011;45058;55.772;38.224;2022-11-20T03:09:35;23.83;;;11.87;;
58240;SDS011;45058;55.772;38.224;2022-11-20T03:12:01;22.00;;;11.33;;
58240;SDS011;45058;55.772;38.224;2022-11-20T03:14:27;20.33;;;11.10;;
58240;SDS011;45058;55.772;38.224;2022-11-20T03:16:53;19.40;;;11.67;;
58240;SDS011;45058;55.772;38.224;2022-11-20T03:19:19;18.30;;;11.43;;
58240;SDS011;45058;55.772;38.224;2022-11-20T03:21:45;20.77;;;11.37;;
58240;SDS011;45058;55.772;38.224;2022-11-20T03:24:12;19.93;;;11.33;;
58240;SDS011;45058;55.772;38.224;2022-11-20T03:26:40;21.73;;;12.37;;
58240;SDS011;45058;55.772;38.224;2022-11-20T03:29:07;20.60;;;11.73;;
58240;SDS011;45058;55.772;38.224;2022-11-20T03:31:34;20.13;;;11.13;;
58240;SDS011;45058;55.772;38.224;2022-11-20T03:34:01;18.87;;;11.20;;
58240;SDS011;45058;55.772;38.224;2022-11-20T03:36:28;18.53;;;10.07;;
58240;SDS011;45058;55.772;38.224;2022-11-20T03:38:55;16.60;;;10.20;;
58240;SDS011;45058;55.772;38.224;2022-11-20T03:41:26;18.07;;;11.30;;
58240;SDS011;45058;55.772;38.224;2022-11-20T03:43:55;18.43;;;11.13;;
58240;SDS011;45058;55.772;38.224;2022-11-20T03:46:25;20.47;;;11.20;;
58240;SDS011;45058;55.772;38.224;2022-11-20T03:48:52;24.83;;;12.53;;
58240;SDS011;45058;55.772;38.224;2022-11-20T03:51:19;22.27;;;13.43;;
58240;SDS011;45058;55.772;38.224;2022-11-20T03:53:47;15.77;;;10.33;;
58240;SDS011;45058;55.772;38.224;2022-11-20T03:56:15;21.70;;;12.23;;
58240;SDS011;45058;55.772;38.224;2022-11-20T03:58:42;16.30;;;10.17;;
58240;SDS011;45058;55.772;38.224;2022-11-20T04:01:10;17.80;;;10.73;;
58240;SDS011;45058;55.772;38.224;2022-11-20T04:03:39;20.40;;;12.10;;
58240;SDS011;45058;55.772;38.224;2022-11-20T04:06:07;16.37;;;11.30;;
58240;SDS011;45058;55.772;38.224;2022-11-20T04:08:34;18.53;;;10.60;;
58240;SDS011;45058;55.772;38.224;2022-11-20T04:11:09;16.87;;;10.57;;
58240;SDS011;45058;55.772;38.224;2022-11-20T04:13:40;19.33;;;10.53;;
58240;SDS011;45058;55.772;38.224;2022-11-20T04:16:07;17.77;;;9.97;;
58240;SDS011;45058;55.772;38.224;2022-11-20T04:18:34;13.00;;;8.30;;
58240;SDS011;45058;55.772;38.224;2022-11-20T04:21:02;14.47;;;9.73;;
58240;SDS011;45058;55.772;38.224;2022-11-20T04:23:30;17.47;;;10.27;;
58240;SDS011;45058;55.772;38.224;2022-11-20T04:26:09;16.97;;;10.10;;
58240;SDS011;45058;55.772;38.224;2022-11-20T04:28:36;16.53;;;10.63;;
58240;SDS011;45058;55.772;38.224;2022-11-20T04:31:04;16.23;;;9.70;;
58240;SDS011;45058;55.772;38.224;2022-11-20T04:33:37;16.73;;;9.87;;
58240;SDS011;45058;55.772;38.224;2022-11-20T04:36:05;19.13;;;10.63;;
58240;SDS011;45058;55.772;38.224;2022-11-20T04:38:33;16.93;;;9.73;;
58240;SDS011;45058;55.772;38.224;2022-11-20T04:40:59;19.60;;;10.60;;
58240;SDS011;45058;55.772;38.224;2022-11-20T04:43:27;16.10;;;9.77;;
58240;SDS011;45058;55.772;38.224;2022-11-20T04:45:53;15.53;;;9.53;;
58240;SDS011;45058;55.772;38.224;2022-11-20T04:48:20;17.60;;;10.43;;
58240;SDS011;45058;55.772;38.224;2022-11-20T04:50:46;14.23;;;9.60;;
58240;SDS011;45058;55.772;38.224;2022-11-20T04:53:12;16.07;;;10.03;;
58240;SDS011;45058;55.772;38.224;2022-11-20T04:55:38;17.47;;;10.90;;
58240;SDS011;45058;55.772;38.224;2022-11-20T04:58:04;15.67;;;9.87;;
58240;SDS011;45058;55.772;38.224;2022-11-20T05:00:30;15.07;;;9.70;;
58240;SDS011;45058;55.772;38.224;2022-11-20T05:02:56;16.13;;;9.90;;
58240;SDS011;45058;55.772;38.224;2022-11-20T05:05:22;17.23;;;11.30;;
58240;SDS011;45058;55.772;38.224;2022-11-20T05:07:48;17.03;;;9.87;;
58240;SDS011;45058;55.772;38.224;2022-11-20T05:10:14;16.17;;;10.17;;
58240;SDS011;45058;55.772;38.224;2022-11-20T05:12:40;18.30;;;11.17;;
58240;SDS011;45058;55.772;38.224;2022-11-20T05:15:06;16.77;;;10.90;;
58240;SDS011;45058;55.772;38.224;2022-11-20T05:17:33;16.13;;;10.77;;
58240;SDS011;45058;55.772;38.224;2022-11-20T05:19:59;15.67;;;9.93;;
58240;SDS011;45058;55.772;38.224;2022-11-20T05:22:25;14.63;;;9.50;;
58240;SDS011;45058;55.772;38.224;2022-11-20T05:24:51;17.23;;;10.50;;
58240;SDS011;45058;55.772;38.224;2022-11-20T05:27:17;18.20;;;11.27;;
58240;SDS011;45058;55.772;38.224;2022-11-20T05:29:43;16.17;;;9.60;;
58240;SDS011;45058;55.772;38.224;2022-11-20T05:32:09;15.67;;;10.20;;
58240;SDS011;45058;55.772;38.224;2022-11-20T05:34:35;16.60;;;10.70;;
58240;SDS011;45058;55.772;38.224;2022-11-20T05:37:02;19.97;;;11.30;;
58240;SDS011;45058;55.772;38.224;2022-11-20T05:39:28;18.63;;;11.60;;
58240;SDS011;45058;55.772;38.224;2022-11-20T05:41:57;17.53;;;10.77;;
58240;SDS011;45058;55.772;38.224;2022-11-20T05:44:41;18.33;;;11.53;;
58240;SDS011;45058;55.772;38.224;2022-11-20T05:47:07;17.53;;;10.37;;
58240;SDS011;45058;55.772;38.224;2022-11-20T05:49:33;16.83;;;11.27;;
58240;SDS011;45058;55.772;38.224;2022-11-20T05:51:59;17.87;;;11.03;;
58240;SDS011;45058;55.772;38.224;2022-11-20T05:54:25;19.87;;;11.43;;
58240;SDS011;45058;55.772;38.224;2022-11-20T05:56:51;19.80;;;11.43;;
58240;SDS011;45058;55.772;38.224;2022-11-20T05:59:17;20.20;;;12.27;;
58240;SDS011;45058;55.772;38.224;2022-11-20T06:01:43;20.10;;;12.40;;
58240;SDS011;45058;55.772;38.224;2022-11-20T06:04:09;23.37;;;13.87;;
58240;SDS011;45058;55.772;38.224;2022-11-20T06:06:35;23.17;;;13.00;;
58240;SDS011;45058;55.772;38.224;2022-11-20T06:09:01;24.37;;;13.83;;
58240;SDS011;45058;55.772;38.224;2022-11-20T06:11:27;21.70;;;13.20;;
58240;SDS011;45058;55.772;38.224;2022-11-20T06:13:53;19.10;;;12.00;;
58240;SDS011;45058;55.772;38.224;2022-11-20T06:16:19;19.83;;;12.13;;
58240;SDS011;45058;55.772;38.224;2022-11-20T06:18:45;18.97;;;12.17;;
58240;SDS011;45058;55.772;38.224;2022-11-20T06:21:16;20.17;;;12.80;;
58240;SDS011;45058;55.772;38.224;2022-11-20T06:23:43;21.40;;;12.57;;
58240;SDS011;45058;55.772;38.224;2022-11-20T06:26:11;21.70;;;13.37;;
58240;SDS011;45058;55.772;38.224;2022-11-20T06:28:39;23.77;;;14.33;;
58240;SDS011;45058;55.772;38.224;2022-11-20T06:31:05;24.27;;;14.33;;
58240;SDS011;45058;55.772;38.224;2022-11-20T06:33:32;25.17;;;13.87;;
58240;SDS011;45058;55.772;38.224;2022-11-20T06:35:58;21.57;;;13.27;;
58240;SDS011;45058;55.772;38.224;2022-11-20T06:38:25;20.83;;;13.10;;
58240;SDS011;45058;55.772;38.224;2022-11-20T06:40:52;21.37;;;12.60;;
58240;SDS011;45058;55.772;38.224;2022-11-20T06:43:18;20.53;;;12.23;;
58240;SDS011;45058;55.772;38.224;2022-11-20T06:45:44;18.53;;;11.77;;
58240;SDS011;45058;55.772;38.224;2022-11-20T06:48:10;21.30;;;12.30;;
58240;SDS011;45058;55.772;38.224;2022-11-20T06:50:37;19.63;;;12.33;;
58240;SDS011;45058;55.772;38.224;2022-11-20T06:53:04;21.20;;;12.43;;
58240;SDS011;45058;55.772;38.224;2022-11-20T06:55:30;20.93;;;12.27;;
58240;SDS011;45058;55.772;38.224;2022-11-20T06:57:57;17.70;;;11.67;;
58240;SDS011;45058;55.772;38.224;2022-11-20T07:00:23;20.43;;;12.67;;
58240;SDS011;45058;55.772;38.224;2022-11-20T07:02:49;21.00;;;11.93;;
58240;SDS011;45058;55.772;38.224;2022-11-20T07:05:16;17.97;;;11.70;;
58240;SDS011;45058;55.772;38.224;2022-11-20T07:07:43;20.47;;;12.90;;
58240;SDS011;45058;55.772;38.224;2022-11-20T07:10:09;19.70;;;11.90;;
58240;SDS011;45058;55.772;38.224;2022-11-20T07:12:35;18.97;;;11.97;;
58240;SDS011;45058;55.772;38.224;2022-11-20T07:15:01;20.07;;;12.60;;
58240;SDS011;45058;55.772;38.224;2022-11-20T07:17:29;17.63;;;10.83;;
58240;SDS011;45058;55.772;38.224;2022-11-20T07:19:55;23.30;;;12.53;;
58240;SDS011;45058;55.772;38.224;2022-11-20T07:22:21;21.47;;;12.23;;
58240;SDS011;45058;55.772;38.224;2022-11-20T07:24:47;19.17;;;12.20;;
58240;SDS011;45058;55.772;38.224;2022-11-20T07:27:13;21.43;;;11.93;;
58240;SDS011;45058;55.772;38.224;2022-11-20T07:29:39;19.47;;;11.70;;
58240;SDS011;45058;55.772;38.224;2022-11-20T07:32:05;19.20;;;12.07;;
58240;SDS011;45058;55.772;38.224;2022-11-20T07:34:31;18.47;;;11.70;;
58240;SDS011;45058;55.772;38.224;2022-11-20T07:36:57;20.20;;;12.50;;
58240;SDS011;45058;55.772;38.224;2022-11-20T07:39:23;18.60;;;11.80;;
58240;SDS011;45058;55.772;38.224;2022-11-20T07:41:49;20.07;;;11.63;;
58240;SDS011;45058;55.772;38.224;2022-11-20T07:44:15;25.77;;;13.57;;
58240;SDS011;45058;55.772;38.224;2022-11-20T07:46:41;20.40;;;11.83;;
58240;SDS011;45058;55.772;38.224;2022-11-20T07:49:07;20.17;;;12.07;;
58240;SDS011;45058;55.772;38.224;2022-11-20T07:51:33;23.30;;;12.17;;
58240;SDS011;45058;55.772;38.224;2022-11-20T07:53:59;17.80;;;11.67;;
58240;SDS011;45058;55.772;38.224;2022-11-20T07:56:25;18.63;;;10.67;;
58240;SDS011;45058;55.772;38.224;2022-11-20T07:58:51;19.27;;;11.30;;
58240;SDS011;45058;55.772;38.224;2022-11-20T08:01:17;20.67;;;12.57;;
58240;SDS011;45058;55.772;38.224;2022-11-20T08:03:43;17.43;;;11.67;;
58240;SDS011;45058;55.772;38.224;2022-11-20T08:06:09;20.23;;;11.67;;
58240;SDS011;45058;55.772;38.224;2022-11-20T08:08:35;19.23;;;12.07;;
58240;SDS011;45058;55.772;38.224;2022-11-20T08:11:01;19.87;;;11.87;;
58240;SDS011;45058;55.772;38.224;2022-11-20T08:13:46;22.60;;;12.50;;
58240;SDS011;45058;55.772;38.224;2022-11-20T08:16:30;22.27;;;12.47;;
58240;SDS011;45058;55.772;38.224;2022-11-20T08:18:56;20.97;;;12.43;;
58240;SDS011;45058;55.772;38.224;2022-11-20T08:21:22;22.73;;;12.60;;
58240;SDS011;45058;55.772;38.224;2022-11-20T08:23:49;21.90;;;12.20;;
58240;SDS011;45058;55.772;38.224;2022-11-20T08:26:15;20.93;;;11.97;;
58240;SDS011;45058;55.772;38.224;2022-11-20T08:28:41;21.47;;;13.13;;
58240;SDS011;45058;55.772;38.224;2022-11-20T08:31:07;21.77;;;12.50;;
58240;SDS011;45058;55.772;38.224;2022-11-20T08:33:35;22.03;;;13.00;;
58240;SDS011;45058;55.772;38.224;2022-11-20T08:36:01;24.77;;;13.90;;
58240;SDS011;45058;55.772;38.224;2022-11-20T08:38:29;23.03;;;12.93;;
58240;SDS011;45058;55.772;38.224;2022-11-20T08:40:58;21.63;;;12.23;;
58240;SDS011;45058;55.772;38.224;2022-11-20T08:43:46;19.73;;;12.57;;
58240;SDS011;45058;55.772;38.224;2022-11-20T08:46:12;23.77;;;13.20;;
58240;SDS011;45058;55.772;38.224;2022-11-20T08:48:38;23.10;;;12.60;;
58240;SDS011;45058;55.772;38.224;2022-11-20T08:51:05;22.87;;;13.60;;
58240;SDS011;45058;55.772;38.224;2022-11-20T08:53:31;26.60;;;13.90;;
58240;SDS011;45058;55.772;38.224;2022-11-20T08:55:57;22.63;;;13.67;;
58240;SDS011;45058;55.772;38.224;2022-11-20T08:58:24;25.43;;;13.90;;
58240;SDS011;45058;55.772;38.224;2022-11-20T09:00:50;21.53;;;13.10;;
58240;SDS011;45058;55.772;38.224;2022-11-20T09:03:16;22.10;;;12.77;;
58240;SDS011;45058;55.772;38.224;2022-11-20T09:05:42;26.00;;;14.00;;
58240;SDS011;45058;55.772;38.224;2022-11-20T09:08:08;24.13;;;14.77;;
58240;SDS011;45058;55.772;38.224;2022-11-20T09:10:34;24.23;;;13.13;;
58240;SDS011;45058;55.772;38.224;2022-11-20T09:13:02;24.27;;;14.60;;
58240;SDS011;45058;55.772;38.224;2022-11-20T09:15:28;23.50;;;13.33;;
58240;SDS011;45058;55.772;38.224;2022-11-20T09:17:55;23.47;;;12.83;;
58240;SDS011;45058;55.772;38.224;2022-11-20T09:20:22;24.00;;;13.47;;
58240;SDS011;45058;55.772;38.224;2022-11-20T09:22:48;19.77;;;12.37;;
58240;SDS011;45058;55.772;38.224;2022-11-20T09:25:14;23.03;;;14.30;;
58240;SDS011;45058;55.772;38.224;2022-11-20T09:27:40;24.67;;;14.70;;
58240;SDS011;45058;55.772;38.224;2022-11-20T09:30:11;30.90;;;17.17;;
58240;SDS011;45058;55.772;38.224;2022-11-20T09:32:38;29.33;;;17.20;;
58240;SDS011;45058;55.772;38.224;2022-11-20T09:35:05;23.77;;;15.00;;
58240;SDS011;45058;55.772;38.224;2022-11-20T09:37:31;24.03;;;15.47;;
58240;SDS011;45058;55.772;38.224;2022-11-20T09:39:57;26.83;;;15.30;;
58240;SDS011;45058;55.772;38.224;2022-11-20T09:42:27;22.43;;;14.07;;
58240;SDS011;45058;55.772;38.224;2022-11-20T09:45:02;18.67;;;11.38;;
58240;SDS011;45058;55.772;38.224;2022-11-20T09:48:05;21.03;;;13.20;;
58240;SDS011;45058;55.772;38.224;2022-11-20T09:54:00;22.03;;;13.97;;
58240;SDS011;45058;55.772;38.224;2022-11-20T09:56:27;24.93;;;14.50;;
58240;SDS011;45058;55.772;38.224;2022-11-20T09:58:54;23.70;;;14.63;;
58240;SDS011;45058;55.772;38.224;2022-11-20T10:01:26;24.63;;;14.10;;
58240;SDS011;45058;55.772;38.224;2022-11-20T10:06:24;21.00;;;13.93;;
58240;SDS011;45058;55.772;38.224;2022-11-20T10:11:35;25.15;;;13.95;;
58240;SDS011;45058;55.772;38.224;2022-11-20T10:20:10;25.20;;;14.03;;
58240;SDS011;45058;55.772;38.224;2022-11-20T10:25:17;24.33;;;14.40;;
58240;SDS011;45058;55.772;38.224;2022-11-20T10:30:40;23.50;;;13.50;;
58240;SDS011;45058;55.772;38.224;2022-11-20T10:38:37;26.37;;;15.00;;
58240;SDS011;45058;55.772;38.224;2022-11-20T10:41:05;26.10;;;14.50;;
58240;SDS011;45058;55.772;38.224;2022-11-20T10:43:56;25.50;;;14.57;;
58240;SDS011;45058;55.772;38.224;2022-11-20T10:46:26;25.33;;;15.40;;
58240;SDS011;45058;55.772;38.224;2022-11-20T10:49:16;23.10;;;14.10;;
58240;SDS011;45058;55.772;38.224;2022-11-20T10:51:52;24.47;;;14.43;;
58240;SDS011;45058;55.772;38.224;2022-11-20T11:00:09;22.37;;;14.07;;
58240;SDS011;45058;55.772;38.224;2022-11-20T11:02:51;30.53;;;15.03;;
58240;SDS011;45058;55.772;38.224;2022-11-20T11:08:15;23.87;;;15.17;;
58240;SDS011;45058;55.772;38.224;2022-11-20T11:11:02;28.63;;;15.47;;
58240;SDS011;45058;55.772;38.224;2022-11-20T11:13:35;27.07;;;15.03;;
58240;SDS011;45058;55.772;38.224;2022-11-20T11:16:02;29.30;;;15.63;;
58240;SDS011;45058;55.772;38.224;2022-11-20T11:18:30;29.70;;;15.87;;
58240;SDS011;45058;55.772;38.224;2022-11-20T11:20:59;32.63;;;16.23;;
58240;SDS011;45058;55.772;38.224;2022-11-20T11:23:31;37.47;;;17.47;;
58240;SDS011;45058;55.772;38.224;2022-11-20T11:26:06;29.63;;;15.87;;
58240;SDS011;45058;55.772;38.224;2022-11-20T11:28:57;35.73;;;17.97;;
58240;SDS011;45058;55.772;38.224;2022-11-20T11:31:34;35.23;;;18.83;;
58240;SDS011;45058;55.772;38.224;2022-11-20T11:34:11;32.78;;;17.70;;
58240;SDS011;45058;55.772;38.224;2022-11-20T11:36:39;32.73;;;16.27;;
58240;SDS011;45058;55.772;38.224;2022-11-20T11:39:08;32.67;;;17.10;;
58240;SDS011;45058;55.772;38.224;2022-11-20T11:41:37;35.20;;;18.30;;
58240;SDS011;45058;55.772;38.224;2022-11-20T11:44:24;34.10;;;16.63;;
58240;SDS011;45058;55.772;38.224;2022-11-20T11:47:19;41.93;;;19.00;;
58240;SDS011;45058;55.772;38.224;2022-11-20T11:52:28;37.13;;;18.80;;
58240;SDS011;45058;55.772;38.224;2022-11-20T11:55:00;46.87;;;21.50;;
58240;SDS011;45058;55.772;38.224;2022-11-20T11:57:49;39.27;;;19.17;;
58240;SDS011;45058;55.772;38.224;2022-11-20T12:00:21;39.33;;;19.00;;
58240;SDS011;45058;55.772;38.224;2022-11-20T12:05:36;42.03;;;18.85;;
58240;SDS011;45058;55.772;38.224;2022-11-20T12:08:20;40.60;;;19.33;;
58240;SDS011;45058;55.772;38.224;2022-11-20T12:10:51;45.00;;;20.87;;
58240;SDS011;45058;55.772;38.224;2022-11-20T12:13:45;52.25;;;21.83;;
58240;SDS011;45058;55.772;38.224;2022-11-20T12:16:17;51.53;;;21.93;;
58240;SDS011;45058;55.772;38.224;2022-11-20T12:18:45;55.90;;;23.10;;
58240;SDS011;45058;55.772;38.224;2022-11-20T12:29:54;55.53;;;24.93;;
58240;SDS011;45058;55.772;38.224;2022-11-20T12:38:07;54.50;;;22.53;;
58240;SDS011;45058;55.772;38.224;2022-11-20T12:43:31;49.23;;;21.87;;
58240;SDS011;45058;55.772;38.224;2022-11-20T12:51:45;54.60;;;21.87;;
58240;SDS011;45058;55.772;38.224;2022-11-20T12:54:42;62.00;;;24.40;;
58240;SDS011;45058;55.772;38.224;2022-11-20T13:08:24;60.73;;;23.07;;
58240;SDS011;45058;55.772;38.224;2022-11-20T13:19:02;53.73;;;22.77;;
58240;SDS011;45058;55.772;38.224;2022-11-20T13:21:37;45.20;;;20.27;;
58240;SDS011;45058;55.772;38.224;2022-11-20T13:24:05;38.03;;;17.77;;
58240;SDS011;45058;55.772;38.224;2022-11-20T13:27:05;53.10;;;20.63;;
58240;SDS011;45058;55.772;38.224;2022-11-20T13:29:45;48.33;;;20.73;;
58240;SDS011;45058;55.772;38.224;2022-11-20T13:32:14;49.13;;;20.73;;
58240;SDS011;45058;55.772;38.224;2022-11-20T13:34:52;52.17;;;21.70;;
58240;SDS011;45058;55.772;38.224;2022-11-20T13:37:38;48.13;;;21.70;;
58240;SDS011;45058;55.772;38.224;2022-11-20T13:40:05;44.87;;;19.93;;
58240;SDS011;45058;55.772;38.224;2022-11-20T13:42:39;46.63;;;21.87;;
58240;SDS011;45058;55.772;38.224;2022-11-20T13:45:21;49.80;;;20.57;;
58240;SDS011;45058;55.772;38.224;2022-11-20T13:47:49;51.10;;;22.13;;
58240;SDS011;45058;55.772;38.224;2022-11-20T13:50:16;45.40;;;19.00;;
58240;SDS011;45058;55.772;38.224;2022-11-20T13:53:01;47.30;;;20.80;;
58240;SDS011;45058;55.772;38.224;2022-11-20T13:55:54;46.17;;;20.17;;
58240;SDS011;45058;55.772;38.224;2022-11-20T14:01:28;54.57;;;20.60;;
58240;SDS011;45058;55.772;38.224;2022-11-20T14:03:57;57.87;;;22.77;;
58240;SDS011;45058;55.772;38.224;2022-11-20T14:08:57;48.17;;;20.77;;
58240;SDS011;45058;55.772;38.224;2022-11-20T14:11:25;43.23;;;20.13;;
58240;SDS011;45058;55.772;38.224;2022-11-20T14:14:00;55.37;;;21.63;;
58240;SDS011;45058;55.772;38.224;2022-11-20T14:16:32;55.77;;;23.23;;
58240;SDS011;45058;55.772;38.224;2022-11-20T14:21:45;59.03;;;22.67;;
58240;SDS011;45058;55.772;38.224;2022-11-20T14:24:12;65.43;;;22.40;;
58240;SDS011;45058;55.772;38.224;2022-11-20T14:26:44;60.50;;;23.80;;
58240;SDS011;45058;55.772;38.224;2022-11-20T14:29:14;54.83;;;23.40;;
58240;SDS011;45058;55.772;38.224;2022-11-20T14:31:43;63.87;;;24.73;;
58240;SDS011;45058;55.772;38.224;2022-11-20T14:34:15;57.23;;;21.57;;
58240;SDS011;45058;55.772;38.224;2022-11-20T14:36:43;56.17;;;22.30;;
58240;SDS011;45058;55.772;38.224;2022-11-20T14:39:11;56.40;;;22.07;;
58240;SDS011;45058;55.772;38.224;2022-11-20T14:41:38;58.33;;;24.40;;
58240;SDS011;45058;55.772;38.224;2022-11-20T14:44:04;61.97;;;24.03;;
58240;SDS011;45058;55.772;38.224;2022-11-20T14:46:30;68.80;;;25.53;;
58240;SDS011;45058;55.772;38.224;2022-11-20T14:48:57;71.90;;;25.47;;
58240;SDS011;45058;55.772;38.224;2022-11-20T14:51:34;56.43;;;23.43;;
58240;SDS011;45058;55.772;38.224;2022-11-20T14:54:16;60.83;;;23.23;;
58240;SDS011;45058;55.772;38.224;2022-11-20T14:57:00;65.00;;;24.57;;
58240;SDS011;45058;55.772;38.224;2022-11-20T14:59:29;68.60;;;25.53;;
58240;SDS011;45058;55.772;38.224;2022-11-20T15:01:57;63.07;;;25.43;;
58240;SDS011;45058;55.772;38.224;2022-11-20T15:04:25;64.27;;;24.63;;
58240;SDS011;45058;55.772;38.224;2022-11-20T15:06:52;61.47;;;24.00;;
58240;SDS011;45058;55.772;38.224;2022-11-20T15:09:20;61.50;;;23.53;;
58240;SDS011;45058;55.772;38.224;2022-11-20T15:12:05;60.63;;;24.50;;
58240;SDS011;45058;55.772;38.224;2022-11-20T15:14:31;60.60;;;23.93;;
58240;SDS011;45058;55.772;38.224;2022-11-20T15:17:00;64.57;;;24.27;;
58240;SDS011;45058;55.772;38.224;2022-11-20T15:19:26;69.87;;;25.67;;
58240;SDS011;45058;55.772;38.224;2022-11-20T15:21:53;71.27;;;25.20;;
58240;SDS011;45058;55.772;38.224;2022-11-20T15:24:19;62.53;;;23.87;;
58240;SDS011;45058;55.772;38.224;2022-11-20T15:26:45;71.17;;;25.67;;
58240;SDS011;45058;55.772;38.224;2022-11-20T15:29:12;63.73;;;23.30;;
58240;SDS011;45058;55.772;38.224;2022-11-20T15:31:44;67.27;;;24.20;;
58240;SDS011;45058;55.772;38.224;2022-11-20T15:34:10;61.63;;;26.40;;
58240;SDS011;45058;55.772;38.224;2022-11-20T15:36:40;69.50;;;25.50;;
58240;SDS011;45058;55.772;38.224;2022-11-20T15:39:07;54.67;;;23.67;;
58240;SDS011;45058;55.772;38.224;2022-11-20T15:41:34;63.50;;;25.60;;
58240;SDS011;45058;55.772;38.224;2022-11-20T15:44:01;66.37;;;26.43;;
58240;SDS011;45058;55.772;38.224;2022-11-20T15:46:30;61.30;;;24.77;;
58240;SDS011;45058;55.772;38.224;2022-11-20T15:49:03;72.20;;;26.13;;
58240;SDS011;45058;55.772;38.224;2022-11-20T15:51:33;70.80;;;25.27;;
58240;SDS011;45058;55.772;38.224;2022-11-20T15:54:00;68.33;;;24.70;;
58240;SDS011;45058;55.772;38.224;2022-11-20T15:56:28;62.20;;;24.87;;
58240;SDS011;45058;55.772;38.224;2022-11-20T15:58:55;71.90;;;26.10;;
58240;SDS011;45058;55.772;38.224;2022-11-20T16:01:21;67.27;;;22.80;;
58240;SDS011;45058;55.772;38.224;2022-11-20T16:03:48;66.10;;;25.33;;